»·PEaware :: N143VT KSAN-KPHX

N143VT :: KSAN-KPHX

FLIGHT INFORMATION

Flight Status: Arrived
Operator: Privately registered:
United States
More flights under this callsign
Pilot: Anonymous 16492 (16492)
Aircraft: ECLIPSE 500
(EA50)
More flights by this aircraft type
Origin: KSAN San Diego Intl-Lindbergh
United States
Destination: KPHX Phoenix Sky Harbor Intl
United States
More flights between these airports :: More routes between these airports
Route: +KSAN ZZOOO2 IPL J2 HOGGZ HYDRR1 KPHX
File this flight plan on PilotEdge
Remarks:
Altitude:
(Current/Filed)
33,000ft
Speed:
(Current/Filed)
300kts
Departed: 15-May-18 05:45 PM
Arrived: 15-May-18 06:43 PM
Distance/Time
Traveled:
263nm/0:58
Distance/Time
To Go:
Arrived

Flight Plot

Page will automatically refresh every two minutes.

Flight plan parsing failed; only flown route is shown


Map Options




Map Legend


Flown Route
Filed Route
Departure Airport
Arrival Airport
Navaid (VOR, NDB)
Fix

Horizontal Profiles

Position Reports

Time Latitude Longitude Heading Altitude Ground
Speed
15-May-18 17:26 32.732024 -117.176217 194 20ft 0kts
15-May-18 17:27 32.732024 -117.176217 194 20ft 0kts
15-May-18 17:28 32.732024 -117.176217 194 20ft 0kts
15-May-18 17:29 32.732024 -117.176217 194 20ft 0kts
15-May-18 17:30 32.732024 -117.176217 194 20ft 0kts
15-May-18 17:31 32.732024 -117.176217 194 20ft 0kts
15-May-18 17:32 32.732024 -117.176217 194 20ft 0kts
15-May-18 17:33 32.732024 -117.176217 194 20ft 0kts
15-May-18 17:34 32.732024 -117.176217 194 20ft 0kts
15-May-18 17:35 32.732024 -117.176217 194 20ft 0kts
15-May-18 17:36 32.732024 -117.176217 194 20ft 0kts
15-May-18 17:37 32.732024 -117.176217 194 20ft 0kts
15-May-18 17:38 32.732024 -117.176217 194 20ft 0kts
15-May-18 17:39 32.732024 -117.176217 194 20ft 0kts
15-May-18 17:40 32.731974 -117.176232 195 20ft 0kts
15-May-18 17:41 32.731886 -117.176261 195 20ft 5kts
15-May-18 17:42 32.730969 -117.175546 135 20ft 0kts
15-May-18 17:43 32.730916 -117.175485 135 20ft 0kts
15-May-18 17:44 32.730612 -117.175263 165 20ft 6kts
15-May-18 17:45 32.734796 -117.194762 289 490ft 127kts
15-May-18 17:46 32.746447 -117.242385 286 2854ft 168kts
15-May-18 17:47 32.749090 -117.296201 220 5574ft 188kts
15-May-18 17:48 32.697137 -117.279134 159 8173ft 210kts
15-May-18 17:49 32.644871 -117.248304 159 10597ft 213kts
15-May-18 17:50 32.619268 -117.189840 92 12742ft 238kts
15-May-18 17:51 32.616782 -117.109654 97 14661ft 248kts
15-May-18 17:52 32.611025 -117.026992 99 16452ft 256kts
15-May-18 17:53 32.603893 -116.941872 99 18100ft 265kts
15-May-18 17:54 32.614876 -116.853853 78 19604ft 278kts
15-May-18 17:55 32.630997 -116.762808 85 20989ft 286kts
15-May-18 17:56 32.640495 -116.668087 85 22277ft 294kts
15-May-18 17:57 32.650084 -116.570298 86 23482ft 302kts
15-May-18 17:58 32.659802 -116.469893 86 24597ft 311kts
15-May-18 17:59 32.669654 -116.367162 86 25641ft 318kts
15-May-18 18:00 32.679681 -116.261650 86 26539ft 326kts
15-May-18 18:01 32.689803 -116.154063 87 27360ft 332kts
15-May-18 18:02 32.700041 -116.044321 87 28148ft 338kts
15-May-18 18:03 32.710394 -115.932847 87 28913ft 342kts
15-May-18 18:04 32.720264 -115.825773 87 30266ft 323kts
15-May-18 18:05 32.729969 -115.719102 87 31018ft 328kts
15-May-18 18:06 32.739705 -115.611074 87 31720ft 333kts
15-May-18 18:07 32.749306 -115.501037 92 32402ft 335kts
15-May-18 18:08 32.751844 -115.389550 93 32914ft 345kts
15-May-18 18:09 32.754517 -115.271787 93 32912ft 369kts
15-May-18 18:10 32.757303 -115.147356 93 32918ft 387kts
15-May-18 18:11 32.760074 -115.018095 92 32919ft 401kts
15-May-18 18:12 32.762824 -114.883826 92 32924ft 413kts
15-May-18 18:13 32.765490 -114.745722 92 32916ft 423kts
15-May-18 18:14 32.768035 -114.605047 92 32778ft 435kts
15-May-18 18:15 32.770167 -114.454988 92 31356ft 472kts
15-May-18 18:16 32.772151 -114.303555 92 29973ft 486kts
15-May-18 18:17 32.781140 -114.143912 92 28507ft 485kts
15-May-18 18:18 32.784089 -113.986121 85 27562ft 479kts
15-May-18 18:19 32.800879 -113.830480 84 26783ft 459kts
15-May-18 18:20 32.819010 -113.685735 69 24905ft 431kts
15-May-18 18:21 32.897653 -113.578833 45 23537ft 440kts
15-May-18 18:22 32.964713 -113.488558 45 22734ft 436kts
15-May-18 18:23 33.043660 -113.382245 46 21981ft 427kts
15-May-18 18:24 33.121074 -113.277407 48 21316ft 418kts
15-May-18 18:25 33.194169 -113.178262 48 18509ft 385kts
15-May-18 18:26 33.262419 -113.085793 48 15350ft 362kts
15-May-18 18:27 33.276843 -112.983294 91 13910ft 315kts
15-May-18 18:28 33.279053 -112.878256 89 11445ft 313kts
15-May-18 18:29 33.284746 -112.782400 85 10924ft 262kts
15-May-18 18:30 33.293186 -112.688922 85 10925ft 228kts
15-May-18 18:31 33.300575 -112.608361 84 10933ft 288kts
15-May-18 18:32 33.308551 -112.522025 84 10925ft 309kts
15-May-18 18:33 33.317940 -112.419803 84 11018ft 313kts
15-May-18 18:34 33.327405 -112.316265 84 10582ft 311kts
15-May-18 18:35 33.335875 -112.223072 84 9063ft 258kts
15-May-18 18:36 33.342667 -112.138774 84 7558ft 250kts
15-May-18 18:37 33.352533 -112.059024 79 6059ft 233kts
15-May-18 18:38 33.362422 -111.990426 79 4605ft 198kts
15-May-18 18:39 33.384302 -111.934496 5 3067ft 191kts
15-May-18 18:40 33.423712 -111.944892 283 2054ft 121kts
15-May-18 18:41 33.428780 -111.988008 270 1366ft 136kts
15-May-18 18:42 33.428862 -112.021310 272 1137ft 62kts
15-May-18 18:43 33.427957 -112.025905 142 1137ft 0kts
15-May-18 18:44 33.427775 -112.025129 90 1137ft 5kts
15-May-18 18:45 33.426802 -112.024087 15 1137ft 0kts
15-May-18 18:46 33.426802 -112.024087 15 1137ft 0kts
15-May-18 18:47 33.426802 -112.024087 15 1137ft 0kts
15-May-18 18:48 33.426802 -112.024087 15 1137ft 0kts
15-May-18 18:49 33.426802 -112.024087 15 1137ft 0kts
15-May-18 18:50 33.426802 -112.024087 15 1137ft 0kts
15-May-18 18:51 33.426802 -112.024087 15 1137ft 0kts
15-May-18 18:52 33.426802 -112.024087 15 1137ft 0kts
15-May-18 18:53 33.426802 -112.024087 15 1137ft 0kts

Navigation Log

Ident Type
Flight plan parsing failed, navigation log unavailable